Time;durP1;ratioP1;P1;durP2;ratioP2;P2;SDS_P1;SDS_P2;PMS_P1;PMS_P2;Temp;Humidity;BMP_temperature;BMP_pressure;BME280_temperature;BME280_humidity;BME280_pressure;Samples;Min_cycle;Max_cycle;Signal;HPM_P1;HPM_P2
2023/05/17 00:02:07;;;;;;;5.90;2.00;;;;;;;;;;5011401;28;20212;-77
2023/05/17 00:04:36;;;;;;;5.10;2.20;;;;;;;;;;5011293;28;20285;-77
2023/05/17 00:07:03;;;;;;;5.37;1.93;;;;;;;;;;5011134;28;20267;-77
2023/05/17 00:09:31;;;;;;;4.10;2.00;;;;;;;;;;5010517;28;20765;-78
2023/05/17 00:11:58;;;;;;;6.10;1.93;;;;;;;;;;5010754;28;20719;-78
2023/05/17 00:14:25;;;;;;;4.90;2.23;;;;;;;;;;5028355;28;20273;-76
2023/05/17 00:16:52;;;;;;;5.63;2.40;;;;;;;;;;5051150;28;20219;-77
2023/05/17 00:19:19;;;;;;;6.67;2.47;;;;;;;;;;5051168;28;20282;-78
2023/05/17 00:21:48;;;;;;;6.87;2.13;;;;;;;;;;5051142;28;20278;-77
2023/05/17 00:24:15;;;;;;;5.87;2.33;;;;;;;;;;5051065;28;20202;-77
2023/05/17 00:26:42;;;;;;;6.80;2.70;;;;;;;;;;5050240;28;20670;-77
2023/05/17 00:29:09;;;;;;;4.87;2.30;;;;;;;;;;5050775;28;20195;-76
2023/05/17 00:31:36;;;;;;;5.00;2.50;;;;;;;;;;5050772;28;20683;-79
2023/05/17 00:34:04;;;;;;;6.17;2.77;;;;;;;;;;5050528;28;20266;-77
2023/05/17 00:36:31;;;;;;;4.73;2.20;;;;;;;;;;5050928;28;20241;-78
2023/05/17 00:38:59;;;;;;;6.10;2.30;;;;;;;;;;5050846;28;20195;-77
2023/05/17 00:41:27;;;;;;;6.97;2.70;;;;;;;;;;5050469;28;20291;-78
2023/05/17 00:43:54;;;;;;;4.13;2.10;;;;;;;;;;5051326;28;20226;-77
2023/05/17 00:46:21;;;;;;;4.97;2.23;;;;;;;;;;5050708;28;20711;-77
2023/05/17 00:48:48;;;;;;;5.33;2.33;;;;;;;;;;5050636;28;20198;-78
2023/05/17 00:51:16;;;;;;;5.37;2.30;;;;;;;;;;5050466;28;20290;-77
2023/05/17 00:53:43;;;;;;;5.90;2.60;;;;;;;;;;5050457;28;20657;-77
2023/05/17 00:56:12;;;;;;;6.03;2.40;;;;;;;;;;5050382;28;20290;-77
2023/05/17 00:58:39;;;;;;;5.27;2.37;;;;;;;;;;5050585;28;20205;-78
2023/05/17 01:01:06;;;;;;;6.57;2.60;;;;;;;;;;5050828;28;20202;-78
2023/05/17 01:03:34;;;;;;;8.73;2.67;;;;;;;;;;5050428;28;20290;-76
2023/05/17 01:06:01;;;;;;;8.03;2.20;;;;;;;;;;5050419;28;20314;-77
2023/05/17 01:08:28;;;;;;;9.80;2.60;;;;;;;;;;5050311;28;20728;-78
2023/05/17 01:11:00;;;;;;;6.27;2.57;;;;;;;;;;5050267;28;20226;-78
2023/05/17 01:13:33;;;;;;;6.87;2.63;;;;;;;;;;5049718;28;20230;-77
2023/05/17 01:16:03;;;;;;;4.90;2.60;;;;;;;;;;5030659;28;20286;-78
2023/05/17 01:18:34;;;;;;;5.93;2.17;;;;;;;;;;5030591;28;20282;-77
2023/05/17 01:21:02;;;;;;;6.93;2.30;;;;;;;;;;5030972;28;20239;-77
2023/05/17 01:23:36;;;;;;;5.77;2.43;;;;;;;;;;5033615;28;20228;-78
2023/05/17 01:26:07;;;;;;;3.80;2.23;;;;;;;;;;5034252;28;20256;-78
2023/05/17 01:28:38;;;;;;;6.23;2.57;;;;;;;;;;5033875;28;20302;-78
2023/05/17 01:31:05;;;;;;;5.87;2.37;;;;;;;;;;5033916;28;20649;-78
2023/05/17 01:33:33;;;;;;;6.57;2.30;;;;;;;;;;5033402;28;20235;-77
2023/05/17 01:36:00;;;;;;;5.77;2.27;;;;;;;;;;5033824;28;20344;-78
2023/05/17 01:38:27;;;;;;;4.07;2.20;;;;;;;;;;5032800;28;20287;-77
2023/05/17 01:40:57;;;;;;;5.00;2.57;;;;;;;;;;5033386;28;20297;-78
2023/05/17 01:43:27;;;;;;;5.80;2.30;;;;;;;;;;5033765;28;20290;-78
2023/05/17 01:45:58;;;;;;;4.63;2.50;;;;;;;;;;5033626;28;20713;-77
2023/05/17 01:48:32;;;;;;;7.67;2.60;;;;;;;;;;5033742;28;20293;-77
2023/05/17 01:51:00;;;;;;;4.43;2.50;;;;;;;;;;5033342;28;20241;-76
2023/05/17 01:53:30;;;;;;;6.83;2.70;;;;;;;;;;5033357;28;20194;-77
2023/05/17 01:56:01;;;;;;;7.57;2.87;;;;;;;;;;5033615;28;20276;-77
2023/05/17 01:58:30;;;;;;;2.97;2.50;;;;;;;;;;5033399;28;20660;-77
2023/05/17 02:00:59;;;;;;;4.60;2.77;;;;;;;;;;5033687;28;20222;-77
2023/05/17 02:03:28;;;;;;;5.30;2.70;;;;;;;;;;5033392;28;20302;-77
2023/05/17 02:05:55;;;;;;;5.57;2.50;;;;;;;;;;5026135;28;20315;-78
2023/05/17 02:08:22;;;;;;;4.37;2.13;;;;;;;;;;5025452;28;20316;-78
2023/05/17 02:10:49;;;;;;;5.47;2.70;;;;;;;;;;5032797;28;20286;-78
2023/05/17 02:13:17;;;;;;;6.87;2.80;;;;;;;;;;5033396;28;20294;-76
2023/05/17 02:15:44;;;;;;;5.47;2.70;;;;;;;;;;5052333;28;20297;-76
2023/05/17 02:18:12;;;;;;;6.63;3.00;;;;;;;;;;5052625;28;20583;-77
2023/05/17 02:20:40;;;;;;;5.00;2.70;;;;;;;;;;5052975;28;20225;-77
2023/05/17 02:23:07;;;;;;;7.90;3.00;;;;;;;;;;5052652;28;20642;-76
2023/05/17 02:25:34;;;;;;;6.07;2.70;;;;;;;;;;5052860;28;20284;-77
2023/05/17 02:28:01;;;;;;;5.60;2.80;;;;;;;;;;5052952;28;20198;-78
2023/05/17 02:30:28;;;;;;;3.63;2.40;;;;;;;;;;5053138;28;20230;-78
2023/05/17 02:32:56;;;;;;;7.10;2.77;;;;;;;;;;5052368;28;20276;-77
2023/05/17 02:35:25;;;;;;;7.50;2.70;;;;;;;;;;5052597;28;20201;-79
2023/05/17 02:37:52;;;;;;;4.87;2.57;;;;;;;;;;5052396;28;20574;-77
2023/05/17 02:40:19;;;;;;;5.47;2.70;;;;;;;;;;5052344;28;20654;-76
2023/05/17 02:42:46;;;;;;;7.27;2.80;;;;;;;;;;5052644;28;20201;-78
2023/05/17 02:45:13;;;;;;;6.97;2.93;;;;;;;;;;5052861;28;20294;-77
2023/05/17 02:47:41;;;;;;;4.63;2.90;;;;;;;;;;5052619;28;20234;-78
2023/05/17 02:50:08;;;;;;;7.87;3.17;;;;;;;;;;5051986;28;20237;-77
2023/05/17 02:52:37;;;;;;;6.30;3.00;;;;;;;;;;5052444;28;20285;-77
2023/05/17 02:55:04;;;;;;;5.30;2.87;;;;;;;;;;5051993;28;20230;-76
2023/05/17 02:57:32;;;;;;;6.13;3.20;;;;;;;;;;5052593;28;20268;-77
2023/05/17 02:59:59;;;;;;;5.37;3.10;;;;;;;;;;5052121;28;20285;-77
2023/05/17 03:02:26;;;;;;;5.60;3.20;;;;;;;;;;5051703;28;20333;-78
2023/05/17 03:04:53;;;;;;;7.90;2.97;;;;;;;;;;5051519;28;20693;-77
2023/05/17 03:07:20;;;;;;;6.43;2.97;;;;;;;;;;5051876;28;20229;-76
2023/05/17 03:09:49;;;;;;;7.07;3.23;;;;;;;;;;5051910;28;20293;-77
2023/05/17 03:12:16;;;;;;;6.07;2.97;;;;;;;;;;5051761;28;20817;-77
2023/05/17 03:14:43;;;;;;;7.23;3.13;;;;;;;;;;5042993;28;20228;-77
2023/05/17 03:17:10;;;;;;;4.80;3.20;;;;;;;;;;5020393;28;20240;-76
2023/05/17 03:19:38;;;;;;;6.27;2.77;;;;;;;;;;5031683;28;20275;-77
2023/05/17 03:22:05;;;;;;;3.97;2.23;;;;;;;;;;5032398;28;20289;-77
2023/05/17 03:24:32;;;;;;;4.07;2.40;;;;;;;;;;5031342;28;20231;-76
2023/05/17 03:27:01;;;;;;;3.00;2.20;;;;;;;;;;5032240;28;20717;-75
2023/05/17 03:29:28;;;;;;;3.67;1.97;;;;;;;;;;5031754;28;20211;-76
2023/05/17 03:31:55;;;;;;;3.70;2.50;;;;;;;;;;5031848;28;20206;-76
2023/05/17 03:34:22;;;;;;;5.53;2.37;;;;;;;;;;5031575;28;20286;-78
2023/05/17 03:36:49;;;;;;;3.60;2.10;;;;;;;;;;5031644;28;20305;-76
2023/05/17 03:39:17;;;;;;;3.73;2.60;;;;;;;;;;5031417;28;20197;-78
2023/05/17 03:41:44;;;;;;;3.30;2.43;;;;;;;;;;5031522;28;20229;-77
2023/05/17 03:44:12;;;;;;;7.63;2.90;;;;;;;;;;5030945;28;20264;-75
2023/05/17 03:46:39;;;;;;;4.77;2.30;;;;;;;;;;5031605;28;20323;-78
2023/05/17 03:49:07;;;;;;;3.83;2.37;;;;;;;;;;5030994;28;20714;-79
2023/05/17 03:51:34;;;;;;;4.90;2.50;;;;;;;;;;5031321;28;20289;-79
2023/05/17 03:54:01;;;;;;;3.83;2.23;;;;;;;;;;5031439;28;20277;-78
2023/05/17 03:56:28;;;;;;;6.63;2.23;;;;;;;;;;5031159;28;20202;-78
2023/05/17 03:58:56;;;;;;;4.03;2.23;;;;;;;;;;5031338;28;20205;-78
2023/05/17 04:01:24;;;;;;;7.07;2.50;;;;;;;;;;5031672;28;20277;-79
2023/05/17 04:03:52;;;;;;;3.90;2.50;;;;;;;;;;5030534;28;20297;-78
2023/05/17 04:06:19;;;;;;;3.50;2.30;;;;;;;;;;5030982;28;20199;-78
2023/05/17 04:08:46;;;;;;;5.60;2.87;;;;;;;;;;5031167;28;20255;-79
2023/05/17 04:11:13;;;;;;;4.70;2.37;;;;;;;;;;5031422;28;20290;-78
2023/05/17 04:13:41;;;;;;;5.70;3.20;;;;;;;;;;5033461;28;20284;-79
2023/05/17 04:16:09;;;;;;;4.13;2.67;;;;;;;;;;5051025;28;20283;-77
2023/05/17 04:18:38;;;;;;;5.30;2.83;;;;;;;;;;5050869;28;20640;-77
2023/05/17 04:21:05;;;;;;;4.80;2.70;;;;;;;;;;5050709;28;20235;-77
2023/05/17 04:23:33;;;;;;;5.70;2.80;;;;;;;;;;5050972;28;20200;-77
2023/05/17 04:26:00;;;;;;;3.60;2.77;;;;;;;;;;5051078;28;20270;-77
2023/05/17 04:28:27;;;;;;;4.73;3.00;;;;;;;;;;5051359;28;20318;-78
2023/05/17 04:30:55;;;;;;;4.87;2.90;;;;;;;;;;5050889;28;20758;-77
2023/05/17 04:33:23;;;;;;;4.53;2.67;;;;;;;;;;5033375;28;20222;-77
2023/05/17 04:35:51;;;;;;;7.63;3.80;;;;;;;;;;5030628;28;20575;-78
2023/05/17 04:38:19;;;;;;;7.63;4.70;;;;;;;;;;5030915;28;20199;-78
2023/05/17 04:40:46;;;;;;;8.37;4.57;;;;;;;;;;5031014;28;20197;-78
2023/05/17 04:43:13;;;;;;;6.03;4.10;;;;;;;;;;5030894;28;20283;-78
2023/05/17 04:45:40;;;;;;;6.07;4.27;;;;;;;;;;5031001;28;20303;-76
2023/05/17 04:48:07;;;;;;;7.03;3.93;;;;;;;;;;5030312;28;20323;-77
2023/05/17 04:50:34;;;;;;;7.07;4.30;;;;;;;;;;5030646;28;20201;-77
2023/05/17 04:53:03;;;;;;;7.63;3.30;;;;;;;;;;5030948;28;20197;-78
2023/05/17 04:55:30;;;;;;;5.87;2.93;;;;;;;;;;5031781;28;20356;-78
2023/05/17 04:57:57;;;;;;;5.53;3.10;;;;;;;;;;5034601;28;20289;-78
2023/05/17 05:00:24;;;;;;;3.83;2.80;;;;;;;;;;5034610;28;20288;-78
2023/05/17 05:02:52;;;;;;;4.50;2.93;;;;;;;;;;5033920;28;20751;-78
2023/05/17 05:05:19;;;;;;;4.17;3.07;;;;;;;;;;5034797;28;20280;-81
2023/05/17 05:07:46;;;;;;;6.20;3.23;;;;;;;;;;5034392;28;20232;-79
2023/05/17 05:10:15;;;;;;;6.23;3.40;;;;;;;;;;5034102;28;20287;-79
2023/05/17 05:12:43;;;;;;;3.23;2.80;;;;;;;;;;5034208;28;20198;-79
2023/05/17 05:15:11;;;;;;;7.00;3.10;;;;;;;;;;5033758;28;20224;-79
2023/05/17 05:17:38;;;;;;;3.83;3.20;;;;;;;;;;5034136;28;20238;-79
2023/05/17 05:20:06;;;;;;;7.80;3.03;;;;;;;;;;5034088;28;20288;-78
2023/05/17 05:22:33;;;;;;;5.63;2.90;;;;;;;;;;5033765;28;20646;-79
2023/05/17 05:25:00;;;;;;;6.60;2.73;;;;;;;;;;5034214;28;20622;-80
2023/05/17 05:27:29;;;;;;;5.10;2.70;;;;;;;;;;5034009;28;20313;-80
2023/05/17 05:29:56;;;;;;;4.27;2.93;;;;;;;;;;5033559;28;20199;-77
2023/05/17 05:32:24;;;;;;;5.00;3.10;;;;;;;;;;5033870;28;20270;-78
2023/05/17 05:34:51;;;;;;;5.47;2.80;;;;;;;;;;5033996;28;20199;-79
2023/05/17 05:37:19;;;;;;;5.07;3.13;;;;;;;;;;5033929;28;20294;-78
2023/05/17 05:39:46;;;;;;;4.27;2.37;;;;;;;;;;5033649;28;20707;-77
2023/05/17 05:42:13;;;;;;;5.67;2.60;;;;;;;;;;5028912;28;20288;-78
2023/05/17 05:44:42;;;;;;;4.50;2.60;;;;;;;;;;5012819;28;20236;-78
2023/05/17 05:47:09;;;;;;;4.73;2.20;;;;;;;;;;5016796;28;20265;-77
2023/05/17 05:49:36;;;;;;;3.07;2.30;;;;;;;;;;5029433;28;20234;-79
2023/05/17 05:52:03;;;;;;;4.00;2.90;;;;;;;;;;5033414;28;20279;-78
2023/05/17 05:54:31;;;;;;;2.37;2.03;;;;;;;;;;5032294;28;20283;-79
2023/05/17 05:56:59;;;;;;;5.77;1.90;;;;;;;;;;5029610;28;20201;-78
2023/05/17 05:59:26;;;;;;;2.90;2.00;;;;;;;;;;5013004;28;20240;-79
2023/05/17 06:01:55;;;;;;;3.57;2.23;;;;;;;;;;5016912;28;20208;-78
2023/05/17 06:04:23;;;;;;;3.80;2.40;;;;;;;;;;5033279;28;20243;-76
2023/05/17 06:06:50;;;;;;;4.87;2.87;;;;;;;;;;5028150;28;20247;-77
2023/05/17 06:09:18;;;;;;;5.83;2.40;;;;;;;;;;5027017;28;20287;-78
2023/05/17 06:11:45;;;;;;;5.50;2.73;;;;;;;;;;5028550;28;20304;-79
2023/05/17 06:14:12;;;;;;;5.30;2.60;;;;;;;;;;5030847;28;20307;-78
2023/05/17 06:16:39;;;;;;;4.90;3.00;;;;;;;;;;5031938;28;20220;-76
2023/05/17 06:19:08;;;;;;;5.60;3.23;;;;;;;;;;5034203;28;20292;-78
2023/05/17 06:21:35;;;;;;;3.87;2.63;;;;;;;;;;5031318;28;20197;-76
2023/05/17 06:24:03;;;;;;;4.10;2.33;;;;;;;;;;5031518;28;20283;-78
2023/05/17 06:26:30;;;;;;;4.47;2.47;;;;;;;;;;5037274;28;20617;-75
2023/05/17 06:28:57;;;;;;;7.60;2.53;;;;;;;;;;5030383;28;20278;-77
2023/05/17 06:31:25;;;;;;;7.00;2.60;;;;;;;;;;5031320;28;20331;-77
2023/05/17 06:33:52;;;;;;;5.93;2.70;;;;;;;;;;5033229;28;20302;-76
2023/05/17 06:36:21;;;;;;;4.95;2.35;;;;;;;;;;5034992;28;20292;-77
2023/05/17 06:38:48;;;;;;;4.70;2.42;;;;;;;;;;5028725;28;20201;-75
2023/05/17 06:41:15;;;;;;;4.38;2.60;;;;;;;;;;5031120;28;20204;-75
2023/05/17 06:43:42;;;;;;;7.75;2.78;;;;;;;;;;5029883;28;20259;-77
2023/05/17 06:46:09;;;;;;;6.22;2.70;;;;;;;;;;5030908;28;21114;-76
2023/05/17 06:48:37;;;;;;;7.35;2.80;;;;;;;;;;5030174;28;20403;-75
2023/05/17 06:51:04;;;;;;;6.20;2.60;;;;;;;;;;5032512;28;20641;-76
2023/05/17 06:53:33;;;;;;;4.93;2.53;;;;;;;;;;5037621;28;20254;-77
2023/05/17 06:56:00;;;;;;;4.72;2.63;;;;;;;;;;5036556;28;20723;-76
2023/05/17 06:58:27;;;;;;;5.70;2.88;;;;;;;;;;5034052;28;20672;-77
2023/05/17 07:00:56;;;;;;;7.82;3.38;;;;;;;;;;5029725;28;20745;-77
2023/05/17 07:03:23;;;;;;;5.05;3.05;;;;;;;;;;5036379;28;20192;-75
2023/05/17 07:05:50;;;;;;;6.93;3.67;;;;;;;;;;5030911;28;20196;-77
2023/05/17 07:08:17;;;;;;;8.55;3.45;;;;;;;;;;5035220;28;20228;-76
2023/05/17 07:10:46;;;;;;;6.40;3.38;;;;;;;;;;5030675;28;20754;-75
2023/05/17 07:13:13;;;;;;;12.05;4.10;;;;;;;;;;5039182;28;20297;-75
2023/05/17 07:15:40;;;;;;;8.13;3.80;;;;;;;;;;5036182;28;20233;-75
2023/05/17 07:18:07;;;;;;;6.80;3.22;;;;;;;;;;5029925;28;20283;-75
2023/05/17 07:20:35;;;;;;;5.93;3.63;;;;;;;;;;5032512;28;20302;-75
2023/05/17 07:23:02;;;;;;;5.25;3.63;;;;;;;;;;5033196;28;20287;-75
2023/05/17 07:25:30;;;;;;;9.02;3.70;;;;;;;;;;5026834;28;20251;-74
2023/05/17 07:27:58;;;;;;;9.50;3.55;;;;;;;;;;5028980;28;20231;-76
2023/05/17 07:30:26;;;;;;;8.52;3.50;;;;;;;;;;5024605;28;20224;-80
2023/05/17 07:32:53;;;;;;;7.50;3.60;;;;;;;;;;5023075;28;20235;-77
2023/05/17 07:35:20;;;;;;;7.13;3.58;;;;;;;;;;5025209;28;20227;-76
2023/05/17 07:37:47;;;;;;;5.85;3.60;;;;;;;;;;5024070;28;20308;-77
2023/05/17 07:40:14;;;;;;;9.65;3.55;;;;;;;;;;5022720;28;20658;-78
2023/05/17 07:42:42;;;;;;;10.90;3.70;;;;;;;;;;5023115;28;20272;-76
2023/05/17 07:45:11;;;;;;;7.35;3.70;;;;;;;;;;5025252;28;20276;-77
2023/05/17 07:47:38;;;;;;;10.25;3.55;;;;;;;;;;5023771;28;20224;-77
2023/05/17 07:50:05;;;;;;;7.50;3.83;;;;;;;;;;5030085;28;20220;-76
2023/05/17 07:52:33;;;;;;;5.68;3.80;;;;;;;;;;5030680;28;20270;-77
2023/05/17 07:55:00;;;;;;;9.10;3.65;;;;;;;;;;5026448;28;20288;-77
2023/05/17 07:57:27;;;;;;;7.22;3.67;;;;;;;;;;5025972;28;20592;-75
2023/05/17 07:59:54;;;;;;;7.10;3.92;;;;;;;;;;5027028;28;20204;-78
2023/05/17 08:02:23;;;;;;;6.32;3.55;;;;;;;;;;5021138;28;20392;-77
2023/05/17 08:04:50;;;;;;;8.23;4.18;;;;;;;;;;5025816;28;20291;-77
2023/05/17 08:07:17;;;;;;;5.85;3.88;;;;;;;;;;5022223;28;20284;-76
2023/05/17 08:09:44;;;;;;;7.20;3.63;;;;;;;;;;5025371;28;20291;-76
2023/05/17 08:12:11;;;;;;;9.25;4.38;;;;;;;;;;5018598;28;20196;-76
2023/05/17 08:14:40;;;;;;;7.30;3.33;;;;;;;;;;5021186;28;20243;-77
2023/05/17 08:17:07;;;;;;;5.82;3.72;;;;;;;;;;5019461;28;20197;-76
2023/05/17 08:19:36;;;;;;;7.63;4.07;;;;;;;;;;5029165;28;20204;-78
2023/05/17 08:22:03;;;;;;;8.35;4.60;;;;;;;;;;5030170;28;20224;-75
2023/05/17 08:24:30;;;;;;;8.48;3.92;;;;;;;;;;5029740;28;20205;-77
2023/05/17 08:26:57;;;;;;;7.63;4.28;;;;;;;;;;5029868;28;20293;-77
2023/05/17 08:29:24;;;;;;;8.40;3.92;;;;;;;;;;5028699;28;20220;-77
2023/05/17 08:31:52;;;;;;;5.38;3.78;;;;;;;;;;5033209;28;20290;-77
2023/05/17 08:34:19;;;;;;;5.97;3.80;;;;;;;;;;5033074;28;20264;-77
2023/05/17 08:36:48;;;;;;;7.78;4.00;;;;;;;;;;5033403;28;20282;-75
2023/05/17 08:39:15;;;;;;;7.35;3.88;;;;;;;;;;5032881;28;20212;-77
2023/05/17 08:41:42;;;;;;;6.35;3.83;;;;;;;;;;5033576;28;20200;-77
2023/05/17 08:44:09;;;;;;;8.05;4.07;;;;;;;;;;5028700;28;20207;-78
2023/05/17 08:46:38;;;;;;;7.57;3.80;;;;;;;;;;5028878;28;20266;-77
2023/05/17 08:49:06;;;;;;;8.93;4.00;;;;;;;;;;5033344;28;20243;-77
2023/05/17 08:51:33;;;;;;;8.82;4.28;;;;;;;;;;5033396;28;20227;-78
2023/05/17 08:54:04;;;;;;;9.43;4.45;;;;;;;;;;5032951;28;20295;-77
2023/05/17 08:56:34;;;;;;;7.38;4.15;;;;;;;;;;5032677;28;20720;-78
2023/05/17 08:59:01;;;;;;;7.32;4.00;;;;;;;;;;5032533;28;20207;-77
2023/05/17 09:01:30;;;;;;;7.03;3.97;;;;;;;;;;5032908;28;20197;-77
2023/05/17 09:03:57;;;;;;;7.55;4.25;;;;;;;;;;5033374;28;20205;-75
2023/05/17 09:06:25;;;;;;;6.82;3.97;;;;;;;;;;5031872;28;20572;-75
2023/05/17 09:08:53;;;;;;;7.40;3.92;;;;;;;;;;5032070;28;20807;-76
2023/05/17 09:11:27;;;;;;;6.78;4.00;;;;;;;;;;5032346;28;20204;-75
2023/05/17 09:13:54;;;;;;;7.55;4.28;;;;;;;;;;5034710;28;20697;-76
2023/05/17 09:16:22;;;;;;;7.03;3.85;;;;;;;;;;5036192;28;20200;-77
2023/05/17 09:18:54;;;;;;;7.78;3.70;;;;;;;;;;5033040;28;20210;-76
2023/05/17 09:21:21;;;;;;;9.23;4.35;;;;;;;;;;5032383;28;20291;-77
2023/05/17 09:23:49;;;;;;;6.65;3.88;;;;;;;;;;5032436;28;20204;-74
2023/05/17 09:26:17;;;;;;;6.80;4.10;;;;;;;;;;5032486;28;20681;-76
2023/05/17 09:28:46;;;;;;;6.40;3.80;;;;;;;;;;5031893;28;20228;-76
2023/05/17 09:31:15;;;;;;;7.90;4.32;;;;;;;;;;5032768;28;20575;-76
2023/05/17 09:33:46;;;;;;;8.27;4.60;;;;;;;;;;5032587;28;20329;-76
2023/05/17 09:36:17;;;;;;;9.80;4.70;;;;;;;;;;5032103;28;20570;-77
2023/05/17 09:38:45;;;;;;;8.50;4.40;;;;;;;;;;5024504;28;20216;-76
2023/05/17 09:41:12;;;;;;;7.00;4.88;;;;;;;;;;5032147;28;20236;-77
2023/05/17 09:43:39;;;;;;;7.55;5.32;;;;;;;;;;5031515;28;20224;-76
2023/05/17 09:46:08;;;;;;;9.98;5.28;;;;;;;;;;5032308;28;20201;-76
2023/05/17 09:48:38;;;;;;;8.20;5.90;;;;;;;;;;5031912;28;20260;-76
2023/05/17 09:51:06;;;;;;;7.88;5.30;;;;;;;;;;5028729;28;20292;-77
2023/05/17 09:53:38;;;;;;;7.63;5.40;;;;;;;;;;5025248;28;20669;-76
2023/05/17 09:56:06;;;;;;;8.32;5.45;;;;;;;;;;5030514;28;20280;-76
2023/05/17 09:58:34;;;;;;;7.53;5.18;;;;;;;;;;5029832;28;20205;-76
2023/05/17 10:01:02;;;;;;;9.20;4.88;;;;;;;;;;5034662;28;20205;-77
2023/05/17 10:03:32;;;;;;;5.88;4.43;;;;;;;;;;5031777;28;20678;-76
2023/05/17 10:06:02;;;;;;;5.95;3.92;;;;;;;;;;5028076;28;20618;-75
2023/05/17 10:08:30;;;;;;;7.18;4.30;;;;;;;;;;5030873;28;20814;-76
2023/05/17 10:11:00;;;;;;;5.93;3.75;;;;;;;;;;5032282;28;20201;-78
2023/05/17 10:13:31;;;;;;;6.18;4.05;;;;;;;;;;5022524;28;20212;-78
2023/05/17 10:15:58;;;;;;;6.03;3.90;;;;;;;;;;5028141;28;20220;-78
2023/05/17 10:18:26;;;;;;;5.95;4.28;;;;;;;;;;5032373;28;20208;-78
2023/05/17 10:20:55;;;;;;;4.53;3.65;;;;;;;;;;5033117;28;20228;-77
2023/05/17 10:23:22;;;;;;;5.20;3.47;;;;;;;;;;5030971;28;20279;-77
2023/05/17 10:25:50;;;;;;;5.90;3.70;;;;;;;;;;5036708;28;20308;-78
2023/05/17 10:28:17;;;;;;;6.45;3.95;;;;;;;;;;5029989;28;20205;-78
2023/05/17 10:30:45;;;;;;;4.78;3.47;;;;;;;;;;5027650;28;20220;-78
2023/05/17 10:33:14;;;;;;;5.90;3.53;;;;;;;;;;5024804;28;20605;-77
2023/05/17 10:35:41;;;;;;;6.82;3.13;;;;;;;;;;5024440;28;20193;-77
2023/05/17 10:38:10;;;;;;;5.45;3.25;;;;;;;;;;5024775;28;20227;-77
2023/05/17 10:40:38;;;;;;;5.60;2.95;;;;;;;;;;5028740;28;20208;-77
2023/05/17 10:43:06;;;;;;;4.35;2.33;;;;;;;;;;5030690;28;20223;-77
2023/05/17 10:45:33;;;;;;;4.35;2.83;;;;;;;;;;5030055;28;20206;-77
2023/05/17 10:48:01;;;;;;;4.03;2.80;;;;;;;;;;5031374;28;20228;-75
2023/05/17 10:50:28;;;;;;;3.75;2.78;;;;;;;;;;5027280;28;20307;-77
2023/05/17 10:52:59;;;;;;;5.70;2.78;;;;;;;;;;5031487;28;20200;-78
2023/05/17 10:55:40;;;;;;;4.45;3.03;;;;;;;;;;5033314;28;20568;-78
2023/05/17 10:58:25;;;;;;;4.07;2.92;;;;;;;;;;5030734;28;20224;-78
2023/05/17 11:00:53;;;;;;;3.53;2.65;;;;;;;;;;5028218;28;20762;-77
2023/05/17 11:03:21;;;;;;;4.55;3.22;;;;;;;;;;5033961;28;20237;-77
2023/05/17 11:06:03;;;;;;;6.07;2.85;;;;;;;;;;5030055;28;20291;-77
2023/05/17 11:08:31;;;;;;;3.83;3.00;;;;;;;;;;5028910;28;20696;-78
2023/05/17 11:11:11;;;;;;;7.50;3.28;;;;;;;;;;5029284;28;20209;-77
2023/05/17 11:13:46;;;;;;;5.30;3.20;;;;;;;;;;5030649;28;20291;-79
2023/05/17 11:16:15;;;;;;;4.10;2.90;;;;;;;;;;5028343;28;20199;-77
2023/05/17 11:18:49;;;;;;;6.95;2.72;;;;;;;;;;5032271;28;20291;-78
2023/05/17 11:21:16;;;;;;;4.72;2.42;;;;;;;;;;5030479;28;20228;-77
2023/05/17 11:23:44;;;;;;;2.88;2.53;;;;;;;;;;5029742;28;20291;-76
2023/05/17 11:26:35;;;;;;;3.65;2.42;;;;;;;;;;5030304;28;20303;-77
2023/05/17 11:29:03;;;;;;;5.75;4.40;;;;;;;;;;5028242;28;20873;-76
2023/05/17 11:31:31;;;;;;;3.85;3.40;;;;;;;;;;5030091;28;20223;-76
2023/05/17 11:33:59;;;;;;;3.20;2.28;;;;;;;;;;5028429;28;20592;-75
2023/05/17 11:36:26;;;;;;;4.05;2.33;;;;;;;;;;5030818;28;20211;-77
2023/05/17 11:39:08;;;;;;;5.10;2.63;;;;;;;;;;5029689;28;20335;-76
2023/05/17 11:41:40;;;;;;;3.53;2.55;;;;;;;;;;5018526;28;20570;-77
2023/05/17 11:44:07;;;;;;;3.47;2.00;;;;;;;;;;5029019;28;20288;-77
2023/05/17 11:46:34;;;;;;;3.65;2.53;;;;;;;;;;5026923;28;20196;-77
2023/05/17 11:49:02;;;;;;;2.92;2.42;;;;;;;;;;5025412;28;20223;-78
2023/05/17 11:51:32;;;;;;;3.60;2.30;;;;;;;;;;5027650;28;20204;-77
2023/05/17 11:54:02;;;;;;;3.03;2.13;;;;;;;;;;5023750;28;20200;-77
2023/05/17 11:56:34;;;;;;;4.85;2.88;;;;;;;;;;5025533;28;20239;-77
2023/05/17 11:59:03;;;;;;;5.50;2.63;;;;;;;;;;5023992;28;20208;-78
2023/05/17 12:01:42;;;;;;;4.70;2.60;;;;;;;;;;5018871;28;20224;-78
2023/05/17 12:04:09;;;;;;;3.45;2.35;;;;;;;;;;5017568;28;20283;-78
2023/05/17 12:06:36;;;;;;;3.65;2.40;;;;;;;;;;5021756;28;20251;-76
2023/05/17 12:09:09;;;;;;;3.92;2.30;;;;;;;;;;5022826;28;20220;-76
2023/05/17 12:11:38;;;;;;;3.35;2.50;;;;;;;;;;5022129;28;20275;-77
2023/05/17 12:14:07;;;;;;;3.47;2.70;;;;;;;;;;5026183;28;20639;-77
2023/05/17 12:16:35;;;;;;;3.63;2.50;;;;;;;;;;5020896;28;20189;-78
2023/05/17 12:19:02;;;;;;;3.92;2.35;;;;;;;;;;5021265;28;20209;-76
2023/05/17 12:21:30;;;;;;;3.17;2.50;;;;;;;;;;5022365;28;20291;-78
2023/05/17 12:23:57;;;;;;;3.00;2.30;;;;;;;;;;5019756;28;20224;-78
2023/05/17 12:26:24;;;;;;;2.95;2.30;;;;;;;;;;5018475;28;20193;-80
2023/05/17 12:28:56;;;;;;;2.58;2.33;;;;;;;;;;5020706;28;20692;-78
2023/05/17 12:31:25;;;;;;;3.17;2.30;;;;;;;;;;5015899;28;20227;-78
2023/05/17 12:33:53;;;;;;;3.05;2.20;;;;;;;;;;5028662;28;20247;-78
2023/05/17 12:36:20;;;;;;;4.43;2.70;;;;;;;;;;5030695;28;20212;-78
2023/05/17 12:38:47;;;;;;;4.45;2.50;;;;;;;;;;5033270;28;20287;-79
2023/05/17 12:41:15;;;;;;;3.50;2.35;;;;;;;;;;5025498;28;20228;-79
2023/05/17 12:43:45;;;;;;;2.70;2.10;;;;;;;;;;5025017;28;20220;-78
2023/05/17 12:46:13;;;;;;;3.67;2.55;;;;;;;;;;5019659;28;20238;-79
2023/05/17 12:48:42;;;;;;;3.47;2.30;;;;;;;;;;5029327;28;20210;-79
2023/05/17 12:51:09;;;;;;;3.53;2.10;;;;;;;;;;5020969;28;20258;-78
2023/05/17 12:53:38;;;;;;;3.58;2.20;;;;;;;;;;5019454;28;20229;-78
2023/05/17 12:56:05;;;;;;;2.58;1.95;;;;;;;;;;5020308;28;20239;-78
2023/05/17 12:58:32;;;;;;;3.83;2.35;;;;;;;;;;5021035;28;20276;-75
2023/05/17 13:01:00;;;;;;;2.35;2.05;;;;;;;;;;5019645;28;20288;-77
2023/05/17 13:03:28;;;;;;;4.00;2.15;;;;;;;;;;5027859;28;20363;-77
2023/05/17 13:06:00;;;;;;;3.08;2.05;;;;;;;;;;5021827;28;20211;-77
2023/05/17 13:08:27;;;;;;;3.58;2.20;;;;;;;;;;5028507;28;20278;-78
2023/05/17 13:10:54;;;;;;;3.03;2.28;;;;;;;;;;5024202;28;20311;-77
2023/05/17 13:13:22;;;;;;;4.15;2.33;;;;;;;;;;5022572;28;20617;-78
2023/05/17 13:15:49;;;;;;;3.80;2.17;;;;;;;;;;5024332;28;20235;-78
2023/05/17 13:18:16;;;;;;;3.08;2.22;;;;;;;;;;5026978;28;20291;-77
2023/05/17 13:20:44;;;;;;;2.97;2.42;;;;;;;;;;5029528;28;20193;-78
2023/05/17 13:23:12;;;;;;;3.13;2.22;;;;;;;;;;5023419;28;20692;-78
2023/05/17 13:25:39;;;;;;;3.67;2.38;;;;;;;;;;5027077;28;20383;-78
2023/05/17 13:28:07;;;;;;;2.90;2.13;;;;;;;;;;5025880;28;20243;-79
2023/05/17 13:30:34;;;;;;;3.45;2.30;;;;;;;;;;5033848;28;20224;-77
2023/05/17 13:33:01;;;;;;;3.85;2.28;;;;;;;;;;5045249;28;20266;-77
2023/05/17 13:35:29;;;;;;;3.15;2.45;;;;;;;;;;5038146;28;20612;-77
2023/05/17 13:37:57;;;;;;;4.03;2.40;;;;;;;;;;5035098;28;20196;-77
2023/05/17 13:40:25;;;;;;;5.05;2.50;;;;;;;;;;5034382;28;20196;-77
2023/05/17 13:42:53;;;;;;;3.58;2.28;;;;;;;;;;5030129;28;20809;-77
2023/05/17 13:45:20;;;;;;;6.38;2.33;;;;;;;;;;5033526;28;20625;-76
2023/05/17 13:47:47;;;;;;;6.35;2.35;;;;;;;;;;5034491;28;20258;-77
2023/05/17 13:50:16;;;;;;;4.28;2.80;;;;;;;;;;5029193;28;20227;-76
2023/05/17 13:52:43;;;;;;;2.90;2.42;;;;;;;;;;5031622;28;20203;-77
2023/05/17 13:55:11;;;;;;;2.72;2.10;;;;;;;;;;5027132;28;20552;-77
2023/05/17 13:57:40;;;;;;;4.35;2.40;;;;;;;;;;5029092;28;20262;-77
2023/05/17 14:00:08;;;;;;;4.13;2.50;;;;;;;;;;5027134;28;20203;-75
2023/05/17 14:02:37;;;;;;;5.07;2.40;;;;;;;;;;5028940;28;20291;-77
2023/05/17 14:05:06;;;;;;;4.63;2.40;;;;;;;;;;5030586;28;20773;-78
2023/05/17 14:07:33;;;;;;;5.10;2.58;;;;;;;;;;5024037;28;20192;-78
2023/05/17 14:10:00;;;;;;;4.22;2.50;;;;;;;;;;5036645;28;20221;-78
2023/05/17 14:12:28;;;;;;;3.55;2.30;;;;;;;;;;5022978;28;20196;-77
2023/05/17 14:14:56;;;;;;;4.45;2.35;;;;;;;;;;5019085;28;20224;-78
2023/05/17 14:17:23;;;;;;;3.33;1.95;;;;;;;;;;5023502;28;20294;-77
2023/05/17 14:19:51;;;;;;;4.20;2.10;;;;;;;;;;5033343;28;20753;-77
2023/05/17 14:22:18;;;;;;;3.00;2.00;;;;;;;;;;5038300;28;20261;-76
2023/05/17 14:24:45;;;;;;;4.15;2.20;;;;;;;;;;5027976;28;20197;-75
2023/05/17 14:27:12;;;;;;;3.75;2.38;;;;;;;;;;5030678;28;20275;-77
2023/05/17 14:29:40;;;;;;;4.25;2.25;;;;;;;;;;5038921;28;20223;-76
2023/05/17 14:32:11;;;;;;;3.55;2.13;;;;;;;;;;5039348;28;20201;-76
2023/05/17 14:34:38;;;;;;;4.85;2.47;;;;;;;;;;5047945;28;20196;-77
2023/05/17 14:37:06;;;;;;;6.70;4.03;;;;;;;;;;5024618;28;20241;-77
2023/05/17 14:39:33;;;;;;;4.13;2.67;;;;;;;;;;5044131;28;20235;-76
2023/05/17 14:42:01;;;;;;;3.83;2.30;;;;;;;;;;5034929;28;20697;-75
2023/05/17 14:44:28;;;;;;;3.97;2.40;;;;;;;;;;5030453;28;20192;-76
2023/05/17 14:46:55;;;;;;;3.20;2.40;;;;;;;;;;5031626;28;20243;-76
2023/05/17 14:49:24;;;;;;;44.10;31.80;;;;;;;;;;5021115;28;20209;-77